Time;durP1;ratioP1;P1;durP2;ratioP2;P2;SDS_P1;SDS_P2;PMS_P1;PMS_P2;Temp;Humidity;BMP_temperature;BMP_pressure;BME280_temperature;BME280_humidity;BME280_pressure;Samples;Min_cycle;Max_cycle;Signal;HPM_P1;HPM_P2
2022/06/06 00:01:21;;;;;;;4.05;3.02;;;;;;;11.80;67.91;99947.55;1644062;84;21525;-59
2022/06/06 00:03:49;;;;;;;9.28;5.90;;;;;;;11.86;68.70;99949.05;1639284;85;20991;-59
2022/06/06 00:06:19;;;;;;;12.50;8.88;;;;;;;11.86;68.70;99949.05;1644117;84;21936;-59
2022/06/06 00:08:47;;;;;;;14.63;8.68;;;;;;;12.01;68.76;99967.06;1644562;84;20917;-59
2022/06/06 00:11:14;;;;;;;8.18;6.67;;;;;;;12.04;69.01;99959.06;1669161;85;21033;-60
2022/06/06 00:13:50;;;;;;;6.20;4.72;;;;;;;11.97;68.96;99948.06;1658267;84;20976;-59
2022/06/06 00:16:17;;;;;;;7.87;4.97;;;;;;;11.96;69.64;99935.03;1650971;84;20939;-59
2022/06/06 00:18:44;;;;;;;7.72;5.03;;;;;;;11.96;69.64;99935.03;1671115;83;21962;-59
2022/06/06 00:21:12;;;;;;;5.00;4.10;;;;;;;12.08;69.57;99950.99;1698823;82;21485;-59
2022/06/06 00:23:39;;;;;;;6.25;4.45;;;;;;;12.09;69.75;99946.13;1677631;82;20961;-60
2022/06/06 00:26:09;;;;;;;7.40;4.28;;;;;;;12.08;69.56;99939.68;1660184;83;21075;-59
2022/06/06 00:28:37;;;;;;;7.30;5.67;;;;;;;12.04;69.97;99942.92;1656008;83;20981;-59
2022/06/06 00:36:40;;;;;;;12.45;8.35;;;;;;;11.92;70.59;99933.51;1632836;84;20932;-59
2022/06/06 00:39:09;;;;;;;13.00;7.70;;;;;;;11.92;70.59;99933.51;1643719;84;21100;-59
2022/06/06 00:41:42;;;;;;;9.83;6.90;;;;;;;11.88;70.74;99931.52;1652896;84;21008;-59
2022/06/06 00:44:16;;;;;;;8.95;6.60;;;;;;;11.88;70.87;99931.98;1651157;84;21085;-59
2022/06/06 00:47:18;;;;;;;10.65;7.62;;;;;;;11.90;71.07;99924.87;1630508;85;20943;-59
2022/06/06 00:49:58;;;;;;;19.80;9.78;;;;;;;11.90;71.07;99924.87;1620139;86;21127;-60
2022/06/06 00:52:30;;;;;;;15.32;10.18;;;;;;;11.80;71.47;99905.69;1614224;86;20985;-60
2022/06/06 00:55:05;;;;;;;14.60;9.63;;;;;;;11.80;71.47;99905.69;1643934;85;21582;-60
2022/06/06 00:57:35;;;;;;;15.03;8.25;;;;;;;11.91;71.40;99916.13;1658357;84;21184;-59
2022/06/06 01:00:07;;;;;;;12.60;7.92;;;;;;;11.76;71.59;99885.85;1643742;85;21639;-59
2022/06/06 01:02:34;;;;;;;8.20;5.65;;;;;;;11.85;71.53;99894.58;1605464;86;21620;-59
2022/06/06 01:05:01;;;;;;;8.00;5.33;;;;;;;11.83;71.79;99891.14;1606415;87;20979;-59
2022/06/06 01:07:28;;;;;;;7.05;5.60;;;;;;;11.80;71.96;99883.45;1635370;86;21027;-59
2022/06/06 01:09:55;;;;;;;8.73;5.42;;;;;;;11.79;72.01;99884.39;1637645;86;22013;-59
2022/06/06 01:12:23;;;;;;;12.73;7.40;;;;;;;11.73;72.24;99871.59;1641361;86;21115;-60
2022/06/06 01:15:00;;;;;;;13.80;8.73;;;;;;;11.68;72.34;99865.77;1634996;86;21162;-59
2022/06/06 01:17:50;;;;;;;11.43;8.60;;;;;;;11.64;72.40;99861.59;1616750;87;20996;-59
2022/06/06 01:20:53;;;;;;;11.50;6.35;;;;;;;11.58;72.67;99856.66;1631544;86;20987;-59
2022/06/06 01:23:50;;;;;;;10.15;5.75;;;;;;;11.53;72.70;99848.20;1611735;86;21579;-59
2022/06/06 01:26:28;;;;;;;8.88;5.67;;;;;;;11.50;72.97;99848.34;1617578;84;20974;-59
2022/06/06 01:29:09;;;;;;;8.60;5.15;;;;;;;11.48;73.16;99842.34;1643514;85;20927;-60
2022/06/06 01:31:48;;;;;;;14.00;4.95;;;;;;;11.50;73.21;99837.89;1631529;84;20991;-59
2022/06/06 01:34:22;;;;;;;9.95;6.10;;;;;;;11.41;73.49;99813.89;1644956;84;20969;-59
2022/06/06 01:36:52;;;;;;;10.45;6.37;;;;;;;11.41;73.49;99813.89;1651491;84;21095;-59
2022/06/06 01:39:21;;;;;;;8.13;5.87;;;;;;;11.52;73.42;99832.13;1661791;84;21039;-59
2022/06/06 01:42:08;;;;;;;8.58;4.60;;;;;;;11.50;73.66;99835.27;1647861;84;20982;-59
2022/06/06 01:44:54;;;;;;;;;;;;;;;11.51;73.72;99847.41;1653900;85;21069;-59
2022/06/06 01:47:32;;;;;;;10.05;4.40;;;;;;;11.53;74.01;99846.88;1651362;84;20248;-59
2022/06/06 01:49:59;;;;;;;6.67;4.60;;;;;;;11.60;74.17;99853.52;1624144;86;21143;-59
2022/06/06 01:52:26;;;;;;;6.62;4.65;;;;;;;11.75;74.27;99847.52;1638114;86;20938;-59
2022/06/06 01:54:57;;;;;;;7.70;4.70;;;;;;;11.75;74.27;99847.52;1629190;86;21116;-59
2022/06/06 01:57:26;;;;;;;5.25;4.37;;;;;;;11.78;74.15;99847.36;1644304;86;22047;-60
2022/06/06 01:59:54;;;;;;;6.15;4.72;;;;;;;11.85;74.40;99855.33;1666972;83;20986;-60
2022/06/06 02:02:20;;;;;;;9.30;4.22;;;;;;;11.91;74.41;99845.48;1672443;83;21452;-59
2022/06/06 02:04:47;;;;;;;5.63;3.90;;;;;;;11.92;74.46;99836.70;1663536;83;21062;-59
2022/06/06 02:07:14;;;;;;;5.15;3.60;;;;;;;11.95;74.64;99835.23;1668770;83;21014;-60
2022/06/06 02:09:41;;;;;;;3.97;3.30;;;;;;;12.08;74.28;99835.83;1680668;83;20955;-60
2022/06/06 02:12:10;;;;;;;7.28;3.80;;;;;;;12.01;74.52;99832.29;1679050;83;21030;-60
2022/06/06 02:14:38;;;;;;;3.87;3.35;;;;;;;11.99;74.63;99830.23;1668317;84;21091;-59
2022/06/06 02:17:06;;;;;;;4.55;3.25;;;;;;;11.98;74.74;99829.37;1673237;83;21141;-60
2022/06/06 02:19:33;;;;;;;4.20;3.67;;;;;;;11.99;74.86;99828.94;1680193;83;21105;-59
2022/06/06 02:22:00;;;;;;;4.03;3.60;;;;;;;11.97;74.92;99824.23;1669517;85;21552;-58
2022/06/06 02:24:27;;;;;;;6.78;3.75;;;;;;;12.03;74.95;99837.83;1678086;83;21062;-59
2022/06/06 02:26:54;;;;;;;5.75;3.80;;;;;;;12.05;74.95;99831.23;1689085;83;21825;-60
2022/06/06 02:29:21;;;;;;;5.30;3.60;;;;;;;12.08;75.09;99837.61;1688628;84;20926;-60
2022/06/06 02:31:47;;;;;;;5.13;3.40;;;;;;;12.13;75.15;99823.83;1691394;83;21690;-60
2022/06/06 02:34:14;;;;;;;5.90;3.17;;;;;;;12.17;75.30;99821.42;1703345;84;21049;-60
2022/06/06 02:36:41;;;;;;;6.20;3.40;;;;;;;12.24;75.14;99818.87;1678754;83;20941;-60
2022/06/06 02:39:07;;;;;;;5.63;3.47;;;;;;;12.30;75.17;99819.86;1675852;83;21900;-60
2022/06/06 02:41:34;;;;;;;3.90;3.07;;;;;;;12.39;75.22;99820.30;1693131;84;21051;-59
2022/06/06 02:44:01;;;;;;;3.80;3.35;;;;;;;12.48;75.30;99821.95;1689921;82;21476;-60
2022/06/06 02:46:27;;;;;;;3.63;3.07;;;;;;;12.66;75.45;99810.96;1675597;82;21143;-60
2022/06/06 02:48:54;;;;;;;6.07;3.33;;;;;;;13.08;75.57;99812.14;1697784;82;20981;-60
2022/06/06 02:51:21;;;;;;;3.30;3.00;;;;;;;13.52;75.23;99814.02;1677823;82;21082;-60
2022/06/06 02:53:49;;;;;;;2.87;2.25;;;;;;;14.02;75.28;99806.25;1645015;84;21065;-60
2022/06/06 02:56:15;;;;;;;3.25;2.40;;;;;;;14.70;75.01;99802.13;1648765;83;21019;-60
2022/06/06 02:58:42;;;;;;;2.90;2.60;;;;;;;15.18;74.55;99806.53;1672058;83;21059;-60
2022/06/06 03:01:11;;;;;;;3.55;2.77;;;;;;;15.80;74.25;99806.81;1646315;84;20942;-60
2022/06/06 03:03:39;;;;;;;4.75;2.80;;;;;;;16.33;73.78;99803.59;1646146;84;21919;-60
2022/06/06 03:06:17;;;;;;;3.08;2.45;;;;;;;16.73;73.25;99795.50;1663647;85;20990;-60
2022/06/06 03:08:58;;;;;;;3.70;2.77;;;;;;;17.13;72.75;99800.55;1694059;84;20993;-60
2022/06/06 03:11:36;;;;;;;3.00;2.70;;;;;;;17.26;72.45;99795.70;1672655;83;21673;-60
2022/06/06 03:14:25;;;;;;;5.10;2.55;;;;;;;17.41;72.03;99795.87;1682065;82;21673;-60
2022/06/06 03:20:54;;;;;;;2.60;2.40;;;;;;;17.07;70.90;99791.77;1656767;85;20985;-60
2022/06/06 03:23:26;;;;;;;2.65;2.35;;;;;;;16.86;70.89;99795.95;1593965;87;21667;-60
2022/06/06 03:26:07;;;;;;;4.33;2.90;;;;;;;17.17;71.14;99790.15;1586075;88;21101;-60
2022/06/06 03:28:55;;;;;;;2.70;2.42;;;;;;;17.36;70.58;99784.33;1631658;86;21429;-60
2022/06/06 03:31:48;;;;;;;7.08;2.65;;;;;;;17.57;70.25;99784.53;1628460;86;21144;-60
2022/06/06 03:34:42;;;;;;;4.90;2.85;;;;;;;18.03;70.32;99783.69;1622709;86;21042;-60
2022/06/06 03:37:30;;;;;;;4.80;2.52;;;;;;;18.42;69.56;99789.47;1630734;86;21176;-60
2022/06/06 03:40:14;;;;;;;3.58;2.40;;;;;;;18.62;68.82;99787.05;1632159;85;21017;-60
2022/06/06 03:43:01;;;;;;;6.35;2.40;;;;;;;18.47;68.52;99791.76;1627525;86;20955;-60
2022/06/06 03:45:44;;;;;;;3.67;2.90;;;;;;;18.34;68.25;99790.09;1645420;85;21313;-60
2022/06/06 03:48:41;;;;;;;3.42;2.62;;;;;;;18.34;68.19;99783.94;1633964;86;21517;-61
2022/06/06 03:51:33;;;;;;;2.30;2.10;;;;;;;18.59;68.09;99779.36;1626872;86;21117;-60
2022/06/06 03:54:11;;;;;;;5.22;2.92;;;;;;;18.99;67.94;99777.05;1642238;85;21552;-60
2022/06/06 03:57:04;;;;;;;8.78;7.20;;;;;;;19.51;67.71;99774.53;1605719;86;20978;-60
2022/06/06 03:59:31;;;;;;;4.45;3.00;;;;;;;20.10;67.09;99767.31;1650686;84;21210;-61
2022/06/06 04:02:02;;;;;;;4.60;2.58;;;;;;;20.67;66.35;99769.88;1689232;83;21546;-60
2022/06/06 04:04:31;;;;;;;5.05;2.42;;;;;;;21.09;66.03;99763.02;1669766;84;21076;-60
2022/06/06 04:07:00;;;;;;;6.53;4.10;;;;;;;21.54;65.42;99766.46;1660779;84;21012;-61
2022/06/06 04:09:33;;;;;;;9.00;3.47;;;;;;;21.77;64.45;99760.83;1690915;84;21002;-61
2022/06/06 04:12:37;;;;;;;4.60;2.87;;;;;;;21.92;64.30;99758.55;1670547;84;21885;-61
2022/06/06 04:15:15;;;;;;;3.42;2.52;;;;;;;22.14;63.80;99762.17;1565409;88;21028;-61
2022/06/06 04:17:53;;;;;;;5.80;2.67;;;;;;;22.39;63.10;99772.67;1500322;92;21501;-61
2022/06/06 04:20:38;;;;;;;5.72;4.20;;;;;;;22.74;63.07;99760.42;1556154;89;20932;-61
2022/06/06 04:23:36;;;;;;;10.58;5.83;;;;;;;23.20;62.85;99762.59;1529830;90;21131;-61
2022/06/06 04:26:19;;;;;;;7.65;4.65;;;;;;;23.80;62.42;99761.41;1564751;88;21145;-61
2022/06/06 04:29:19;;;;;;;7.12;3.85;;;;;;;24.17;61.77;99754.98;1561443;88;20995;-61
2022/06/06 04:32:27;;;;;;;7.87;3.50;;;;;;;24.37;60.46;99752.05;1570420;88;22369;-61
2022/06/06 04:35:17;;;;;;;12.60;2.40;;;;;;;24.58;59.56;99748.50;1568362;88;21654;-61
2022/06/06 04:37:56;;;;;;;4.20;2.42;;;;;;;24.26;58.59;99748.69;1563140;88;21104;-62
2022/06/06 04:40:45;;;;;;;4.40;2.37;;;;;;;24.05;58.23;99744.23;1531231;92;21191;-63
2022/06/06 04:43:28;;;;;;;8.98;2.85;;;;;;;23.95;58.24;99744.87;1532692;91;21083;-63
2022/06/06 04:46:06;;;;;;;4.03;2.33;;;;;;;23.92;57.15;99751.34;1510602;90;21292;-62
2022/06/06 04:48:35;;;;;;;7.25;2.40;;;;;;;23.76;56.90;99760.08;1548976;90;21032;-61
2022/06/06 04:51:04;;;;;;;5.05;2.55;;;;;;;24.01;56.71;99757.56;1563329;87;21020;-62
2022/06/06 04:53:32;;;;;;;5.83;2.33;;;;;;;24.20;56.44;99758.67;1610869;86;21120;-62
2022/06/06 04:56:00;;;;;;;6.28;2.30;;;;;;;24.52;56.23;99763.83;1599950;87;21002;-62
2022/06/06 04:58:32;;;;;;;9.18;2.85;;;;;;;24.87;55.82;99761.91;1595990;87;21022;-62
2022/06/06 05:01:01;;;;;;;6.12;2.27;;;;;;;25.28;55.63;99756.67;1600400;88;21525;-63
2022/06/06 05:03:28;;;;;;;13.93;3.67;;;;;;;25.55;54.84;99767.02;1606425;87;20947;-62
2022/06/06 05:06:15;;;;;;;4.03;2.27;;;;;;;25.73;54.40;99766.00;1606016;86;22221;-62
2022/06/06 05:09:12;;;;;;;5.72;2.35;;;;;;;25.79;53.75;99762.64;1601245;86;21541;-61
2022/06/06 05:12:06;;;;;;;5.00;1.85;;;;;;;26.15;53.48;99768.95;1606156;86;21683;-62
2022/06/06 05:15:01;;;;;;;10.20;2.70;;;;;;;26.46;52.64;99771.16;1592660;86;21046;-65
2022/06/06 05:17:51;;;;;;;7.25;2.02;;;;;;;26.28;52.04;99765.23;1605814;87;21065;-62
2022/06/06 05:20:23;;;;;;;6.20;2.02;;;;;;;26.26;51.70;99769.91;1595689;87;21081;-63
2022/06/06 05:23:40;;;;;;;5.53;2.40;;;;;;;26.36;51.55;99773.23;1628247;82;21072;-63
2022/06/06 05:26:19;;;;;;;4.47;2.10;;;;;;;26.41;51.05;99769.54;1694844;82;32690;-64
2022/06/06 05:29:21;;;;;;;3.62;2.20;;;;;;;26.38;50.33;99772.53;1607317;86;21065;-64
2022/06/06 05:32:38;;;;;;;3.87;2.12;;;;;;;26.39;49.87;99771.55;1603188;87;21063;-65
2022/06/06 05:35:32;;;;;;;12.37;2.80;;;;;;;26.67;49.73;99777.81;1606713;87;21922;-63
2022/06/06 05:38:26;;;;;;;4.92;1.60;;;;;;;26.92;48.96;99768.62;1607340;87;21004;-62
2022/06/06 05:41:16;;;;;;;3.15;2.22;;;;;;;26.90;48.51;99765.28;1604794;85;21082;-64
2022/06/06 05:44:03;;;;;;;6.17;2.65;;;;;;;27.00;48.18;99771.26;1609480;87;21020;-64
2022/06/06 05:46:57;;;;;;;5.05;2.37;;;;;;;26.97;47.21;99768.94;1612231;86;21704;-65
2022/06/06 05:49:38;;;;;;;3.45;2.05;;;;;;;26.52;45.72;99767.84;1612301;85;21091;-65
2022/06/06 05:52:27;;;;;;;25.50;3.22;;;;;;;25.78;46.19;99763.66;1640206;84;21508;-62
2022/06/06 05:54:59;;;;;;;3.22;2.12;;;;;;;25.58;46.61;99763.18;1651232;85;20979;-63
2022/06/06 05:57:44;;;;;;;7.40;2.37;;;;;;;25.39;46.03;99759.00;1657672;85;20998;-62
2022/06/06 06:00:36;;;;;;;10.60;2.40;;;;;;;25.44;45.97;99758.01;1657736;85;21024;-62
2022/06/06 06:03:35;;;;;;;8.40;2.50;;;;;;;25.59;45.92;99757.65;1653417;85;21586;-62
2022/06/06 06:06:22;;;;;;;9.15;2.40;;;;;;;25.68;45.67;99751.78;1672890;82;21037;-63
2022/06/06 06:09:07;;;;;;;6.90;2.45;;;;;;;25.65;44.73;99758.81;1639223;85;21529;-63
2022/06/06 06:12:11;;;;;;;8.43;2.60;;;;;;;25.15;44.82;99759.34;1583223;88;21568;-63
2022/06/06 06:14:59;;;;;;;3.15;2.30;;;;;;;24.76;44.47;99757.23;1584186;87;21600;-63
2022/06/06 06:17:28;;;;;;;3.42;2.05;;;;;;;24.25;44.09;99757.67;1548239;90;22057;-63
2022/06/06 06:20:15;;;;;;;3.05;2.33;;;;;;;23.96;44.45;99754.53;1553190;89;21085;-63
2022/06/06 06:23:08;;;;;;;5.62;2.58;;;;;;;23.90;44.17;99752.83;1590758;87;20977;-63
2022/06/06 06:25:38;;;;;;;6.72;2.42;;;;;;;23.79;44.01;99756.26;1594238;87;20962;-61
2022/06/06 06:28:10;;;;;;;12.00;2.98;;;;;;;23.60;44.25;99754.59;1601255;87;21250;-63
2022/06/06 06:30:48;;;;;;;6.10;2.87;;;;;;;23.79;44.76;99749.09;1605751;87;21137;-62
2022/06/06 06:33:25;;;;;;;3.17;2.27;;;;;;;24.14;44.38;99736.61;1570047;87;21077;-63
2022/06/06 06:36:04;;;;;;;7.03;2.45;;;;;;;24.31;44.33;99741.05;1579550;88;21056;-63
2022/06/06 06:38:57;;;;;;;4.78;2.42;;;;;;;24.58;44.47;99733.81;1606265;87;21044;-64
